sensor_id;sensor_type;location;lat;lon;timestamp;temperature;humidity
41533;DHT22;27262;-35.248;149.138;2024-02-14T00:01:56;24.30;65.40
41533;DHT22;27262;-35.248;149.138;2024-02-14T00:04:27;24.30;65.50
41533;DHT22;27262;-35.248;149.138;2024-02-14T00:06:57;24.30;65.50
41533;DHT22;27262;-35.248;149.138;2024-02-14T00:09:28;24.30;65.50
41533;DHT22;27262;-35.248;149.138;2024-02-14T00:11:58;24.30;65.70
41533;DHT22;27262;-35.248;149.138;2024-02-14T00:14:28;24.30;65.60
41533;DHT22;27262;-35.248;149.138;2024-02-14T00:17:00;24.30;65.60
41533;DHT22;27262;-35.248;149.138;2024-02-14T00:19:31;24.30;65.60
41533;DHT22;27262;-35.248;149.138;2024-02-14T00:22:01;24.40;65.70
41533;DHT22;27262;-35.248;149.138;2024-02-14T00:24:32;24.40;65.70
41533;DHT22;27262;-35.248;149.138;2024-02-14T00:27:03;24.40;65.80
41533;DHT22;27262;-35.248;149.138;2024-02-14T00:29:34;24.40;65.70
41533;DHT22;27262;-35.248;149.138;2024-02-14T00:32:05;24.40;65.60
41533;DHT22;27262;-35.248;149.138;2024-02-14T00:34:35;24.40;65.50
41533;DHT22;27262;-35.248;149.138;2024-02-14T00:37:06;24.40;65.50
41533;DHT22;27262;-35.248;149.138;2024-02-14T00:39:37;24.40;65.50
41533;DHT22;27262;-35.248;149.138;2024-02-14T00:42:07;24.40;65.50
41533;DHT22;27262;-35.248;149.138;2024-02-14T00:44:38;24.40;65.50
41533;DHT22;27262;-35.248;149.138;2024-02-14T00:47:08;24.40;65.50
41533;DHT22;27262;-35.248;149.138;2024-02-14T00:49:38;24.40;65.50
41533;DHT22;27262;-35.248;149.138;2024-02-14T00:52:09;24.50;65.60
41533;DHT22;27262;-35.248;149.138;2024-02-14T00:54:39;24.50;65.60
41533;DHT22;27262;-35.248;149.138;2024-02-14T00:57:09;24.50;65.60
41533;DHT22;27262;-35.248;149.138;2024-02-14T00:59:41;24.50;65.60
41533;DHT22;27262;-35.248;149.138;2024-02-14T01:02:11;24.50;65.80
41533;DHT22;27262;-35.248;149.138;2024-02-14T01:04:42;24.50;65.70
41533;DHT22;27262;-35.248;149.138;2024-02-14T01:07:12;24.50;65.60
41533;DHT22;27262;-35.248;149.138;2024-02-14T01:09:42;24.50;65.60
41533;DHT22;27262;-35.248;149.138;2024-02-14T01:12:13;24.50;65.60
41533;DHT22;27262;-35.248;149.138;2024-02-14T01:14:43;24.50;65.70
41533;DHT22;27262;-35.248;149.138;2024-02-14T01:17:14;24.50;65.70
41533;DHT22;27262;-35.248;149.138;2024-02-14T01:19:45;24.50;65.60
41533;DHT22;27262;-35.248;149.138;2024-02-14T01:22:16;24.50;65.60
41533;DHT22;27262;-35.248;149.138;2024-02-14T01:24:46;24.50;65.50
41533;DHT22;27262;-35.248;149.138;2024-02-14T01:27:17;24.50;65.60
41533;DHT22;27262;-35.248;149.138;2024-02-14T01:29:48;24.50;65.50
41533;DHT22;27262;-35.248;149.138;2024-02-14T01:32:18;24.60;65.50
41533;DHT22;27262;-35.248;149.138;2024-02-14T01:34:49;24.60;65.50
41533;DHT22;27262;-35.248;149.138;2024-02-14T01:37:19;24.60;65.50
41533;DHT22;27262;-35.248;149.138;2024-02-14T01:39:50;24.60;65.50
41533;DHT22;27262;-35.248;149.138;2024-02-14T01:42:20;24.60;65.50
41533;DHT22;27262;-35.248;149.138;2024-02-14T01:44:51;24.60;65.50
41533;DHT22;27262;-35.248;149.138;2024-02-14T01:47:23;24.60;65.50
41533;DHT22;27262;-35.248;149.138;2024-02-14T01:49:53;24.60;65.30
41533;DHT22;27262;-35.248;149.138;2024-02-14T01:52:24;24.70;65.40
41533;DHT22;27262;-35.248;149.138;2024-02-14T01:54:54;24.60;65.10
41533;DHT22;27262;-35.248;149.138;2024-02-14T01:57:25;24.70;65.10
41533;DHT22;27262;-35.248;149.138;2024-02-14T01:59:57;24.70;65.00
41533;DHT22;27262;-35.248;149.138;2024-02-14T02:02:28;24.70;65.00
41533;DHT22;27262;-35.248;149.138;2024-02-14T02:04:58;24.70;65.00
41533;DHT22;27262;-35.248;149.138;2024-02-14T02:07:30;24.70;64.90
41533;DHT22;27262;-35.248;149.138;2024-02-14T02:10:01;24.70;64.90
41533;DHT22;27262;-35.248;149.138;2024-02-14T02:12:33;24.70;64.80
41533;DHT22;27262;-35.248;149.138;2024-02-14T02:15:08;24.70;64.80
41533;DHT22;27262;-35.248;149.138;2024-02-14T02:17:45;24.70;64.60
41533;DHT22;27262;-35.248;149.138;2024-02-14T02:20:22;24.70;64.60
41533;DHT22;27262;-35.248;149.138;2024-02-14T02:22:52;24.70;64.50
41533;DHT22;27262;-35.248;149.138;2024-02-14T02:25:22;24.70;64.50
41533;DHT22;27262;-35.248;149.138;2024-02-14T02:27:54;24.70;64.40
41533;DHT22;27262;-35.248;149.138;2024-02-14T02:30:27;24.70;64.40
41533;DHT22;27262;-35.248;149.138;2024-02-14T02:32:59;24.80;64.30
41533;DHT22;27262;-35.248;149.138;2024-02-14T02:35:30;24.80;64.30
41533;DHT22;27262;-35.248;149.138;2024-02-14T02:38:00;24.80;64.30
41533;DHT22;27262;-35.248;149.138;2024-02-14T02:40:31;24.80;64.30
41533;DHT22;27262;-35.248;149.138;2024-02-14T02:43:01;24.80;64.20
41533;DHT22;27262;-35.248;149.138;2024-02-14T02:45:31;24.80;64.20
41533;DHT22;27262;-35.248;149.138;2024-02-14T02:48:02;24.80;64.20
41533;DHT22;27262;-35.248;149.138;2024-02-14T02:50:33;24.80;64.20
41533;DHT22;27262;-35.248;149.138;2024-02-14T02:53:03;24.80;64.20
41533;DHT22;27262;-35.248;149.138;2024-02-14T02:55:33;24.80;64.20
41533;DHT22;27262;-35.248;149.138;2024-02-14T02:58:06;24.80;64.20
41533;DHT22;27262;-35.248;149.138;2024-02-14T03:00:37;24.80;64.10
41533;DHT22;27262;-35.248;149.138;2024-02-14T03:03:10;24.90;64.20
41533;DHT22;27262;-35.248;149.138;2024-02-14T03:05:40;24.90;64.10
41533;DHT22;27262;-35.248;149.138;2024-02-14T03:08:11;24.80;64.10
41533;DHT22;27262;-35.248;149.138;2024-02-14T03:10:52;24.90;64.10
41533;DHT22;27262;-35.248;149.138;2024-02-14T03:13:23;24.90;64.10
41533;DHT22;27262;-35.248;149.138;2024-02-14T03:15:53;24.90;64.10
41533;DHT22;27262;-35.248;149.138;2024-02-14T03:18:26;24.90;64.00
41533;DHT22;27262;-35.248;149.138;2024-02-14T03:20:57;24.90;64.00
41533;DHT22;27262;-35.248;149.138;2024-02-14T03:23:27;24.90;64.00
41533;DHT22;27262;-35.248;149.138;2024-02-14T03:25:58;24.90;64.00
41533;DHT22;27262;-35.248;149.138;2024-02-14T03:28:28;24.90;64.00
41533;DHT22;27262;-35.248;149.138;2024-02-14T03:30:59;24.90;63.90
41533;DHT22;27262;-35.248;149.138;2024-02-14T03:33:30;24.90;63.90
41533;DHT22;27262;-35.248;149.138;2024-02-14T03:36:00;25.00;64.00
41533;DHT22;27262;-35.248;149.138;2024-02-14T03:38:31;24.90;63.90
41533;DHT22;27262;-35.248;149.138;2024-02-14T03:41:01;24.90;63.90
41533;DHT22;27262;-35.248;149.138;2024-02-14T03:43:31;25.00;63.90
41533;DHT22;27262;-35.248;149.138;2024-02-14T03:46:02;25.00;63.90
41533;DHT22;27262;-35.248;149.138;2024-02-14T03:48:32;25.00;63.90
41533;DHT22;27262;-35.248;149.138;2024-02-14T03:51:03;25.00;63.90
41533;DHT22;27262;-35.248;149.138;2024-02-14T03:53:34;25.00;63.90
41533;DHT22;27262;-35.248;149.138;2024-02-14T03:56:04;25.00;63.90
41533;DHT22;27262;-35.248;149.138;2024-02-14T03:58:36;25.00;63.80
41533;DHT22;27262;-35.248;149.138;2024-02-14T04:01:07;25.00;63.80
41533;DHT22;27262;-35.248;149.138;2024-02-14T04:03:37;25.00;63.80
41533;DHT22;27262;-35.248;149.138;2024-02-14T04:06:07;25.00;63.80
41533;DHT22;27262;-35.248;149.138;2024-02-14T04:08:38;25.00;63.80
41533;DHT22;27262;-35.248;149.138;2024-02-14T04:11:09;25.10;63.80
41533;DHT22;27262;-35.248;149.138;2024-02-14T04:13:39;25.10;63.80
41533;DHT22;27262;-35.248;149.138;2024-02-14T04:16:10;25.10;63.80
41533;DHT22;27262;-35.248;149.138;2024-02-14T04:18:42;25.10;63.70
41533;DHT22;27262;-35.248;149.138;2024-02-14T04:21:12;25.10;63.70
41533;DHT22;27262;-35.248;149.138;2024-02-14T04:23:43;25.10;63.80
41533;DHT22;27262;-35.248;149.138;2024-02-14T04:26:23;25.20;63.80
41533;DHT22;27262;-35.248;149.138;2024-02-14T04:28:53;25.20;63.60
41533;DHT22;27262;-35.248;149.138;2024-02-14T04:31:24;25.20;63.70
41533;DHT22;27262;-35.248;149.138;2024-02-14T04:33:57;25.20;63.60
41533;DHT22;27262;-35.248;149.138;2024-02-14T04:36:27;25.20;63.70
41533;DHT22;27262;-35.248;149.138;2024-02-14T04:39:00;25.20;64.00
41533;DHT22;27262;-35.248;149.138;2024-02-14T04:41:30;25.20;64.20
41533;DHT22;27262;-35.248;149.138;2024-02-14T04:44:05;25.20;64.60
41533;DHT22;27262;-35.248;149.138;2024-02-14T04:46:37;25.20;64.80
41533;DHT22;27262;-35.248;149.138;2024-02-14T04:49:13;25.20;65.10
41533;DHT22;27262;-35.248;149.138;2024-02-14T04:51:44;25.30;65.30
41533;DHT22;27262;-35.248;149.138;2024-02-14T04:54:15;25.30;65.40
41533;DHT22;27262;-35.248;149.138;2024-02-14T04:56:46;25.30;65.50
41533;DHT22;27262;-35.248;149.138;2024-02-14T04:59:22;25.30;65.50
41533;DHT22;27262;-35.248;149.138;2024-02-14T05:01:52;25.40;65.60
41533;DHT22;27262;-35.248;149.138;2024-02-14T05:04:23;25.40;66.30
41533;DHT22;27262;-35.248;149.138;2024-02-14T05:06:54;25.40;65.40
41533;DHT22;27262;-35.248;149.138;2024-02-14T05:09:26;25.40;65.50
41533;DHT22;27262;-35.248;149.138;2024-02-14T05:11:57;25.40;66.20
41533;DHT22;27262;-35.248;149.138;2024-02-14T05:14:28;25.50;65.50
41533;DHT22;27262;-35.248;149.138;2024-02-14T05:17:01;25.50;65.40
41533;DHT22;27262;-35.248;149.138;2024-02-14T05:19:31;25.50;65.40
41533;DHT22;27262;-35.248;149.138;2024-02-14T05:22:02;25.50;65.30
41533;DHT22;27262;-35.248;149.138;2024-02-14T05:24:32;25.50;65.20
41533;DHT22;27262;-35.248;149.138;2024-02-14T05:27:05;25.50;65.00
41533;DHT22;27262;-35.248;149.138;2024-02-14T05:29:35;25.50;64.80
41533;DHT22;27262;-35.248;149.138;2024-02-14T05:32:06;25.60;64.60
41533;DHT22;27262;-35.248;149.138;2024-02-14T05:34:39;25.60;64.50
41533;DHT22;27262;-35.248;149.138;2024-02-14T05:37:09;25.60;64.30
41533;DHT22;27262;-35.248;149.138;2024-02-14T05:39:40;25.60;64.20
41533;DHT22;27262;-35.248;149.138;2024-02-14T05:42:10;25.60;64.10
41533;DHT22;27262;-35.248;149.138;2024-02-14T05:44:42;25.60;64.00
41533;DHT22;27262;-35.248;149.138;2024-02-14T05:47:12;25.60;64.00
41533;DHT22;27262;-35.248;149.138;2024-02-14T05:49:43;25.70;64.00
41533;DHT22;27262;-35.248;149.138;2024-02-14T05:52:13;25.70;64.00
41533;DHT22;27262;-35.248;149.138;2024-02-14T05:54:45;25.70;64.00
41533;DHT22;27262;-35.248;149.138;2024-02-14T05:57:15;25.70;64.00
41533;DHT22;27262;-35.248;149.138;2024-02-14T05:59:46;25.70;64.00
41533;DHT22;27262;-35.248;149.138;2024-02-14T06:02:16;25.80;64.20
41533;DHT22;27262;-35.248;149.138;2024-02-14T06:04:46;25.70;64.50
41533;DHT22;27262;-35.248;149.138;2024-02-14T06:07:17;25.80;64.80
41533;DHT22;27262;-35.248;149.138;2024-02-14T06:09:47;25.80;64.90
41533;DHT22;27262;-35.248;149.138;2024-02-14T06:12:17;25.80;65.10
41533;DHT22;27262;-35.248;149.138;2024-02-14T06:14:51;25.80;65.10
41533;DHT22;27262;-35.248;149.138;2024-02-14T06:17:22;25.80;62.40
41533;DHT22;27262;-35.248;149.138;2024-02-14T06:19:53;25.60;60.80
41533;DHT22;27262;-35.248;149.138;2024-02-14T06:22:23;25.20;58.90
41533;DHT22;27262;-35.248;149.138;2024-02-14T06:24:54;25.00;58.60
41533;DHT22;27262;-35.248;149.138;2024-02-14T06:27:24;24.70;59.80
41533;DHT22;27262;-35.248;149.138;2024-02-14T06:29:54;24.60;59.70
41533;DHT22;27262;-35.248;149.138;2024-02-14T06:32:25;24.50;59.40
41533;DHT22;27262;-35.248;149.138;2024-02-14T06:34:56;24.40;60.00
41533;DHT22;27262;-35.248;149.138;2024-02-14T06:37:27;24.30;59.70
41533;DHT22;27262;-35.248;149.138;2024-02-14T06:40:09;24.20;59.00
41533;DHT22;27262;-35.248;149.138;2024-02-14T06:42:40;24.10;59.60
41533;DHT22;27262;-35.248;149.138;2024-02-14T06:45:10;24.10;59.40
41533;DHT22;27262;-35.248;149.138;2024-02-14T06:47:40;24.00;59.60
41533;DHT22;27262;-35.248;149.138;2024-02-14T06:50:11;24.00;59.30
41533;DHT22;27262;-35.248;149.138;2024-02-14T06:52:41;23.90;58.60
41533;DHT22;27262;-35.248;149.138;2024-02-14T06:55:11;23.90;58.20
41533;DHT22;27262;-35.248;149.138;2024-02-14T06:57:41;23.80;58.20
41533;DHT22;27262;-35.248;149.138;2024-02-14T07:00:12;23.90;60.60
41533;DHT22;27262;-35.248;149.138;2024-02-14T07:02:49;24.10;60.90
41533;DHT22;27262;-35.248;149.138;2024-02-14T07:05:19;24.30;60.70
41533;DHT22;27262;-35.248;149.138;2024-02-14T07:07:49;24.30;60.50
41533;DHT22;27262;-35.248;149.138;2024-02-14T07:10:20;24.40;60.00
41533;DHT22;27262;-35.248;149.138;2024-02-14T07:12:50;24.50;59.80
41533;DHT22;27262;-35.248;149.138;2024-02-14T07:15:21;24.50;59.30
41533;DHT22;27262;-35.248;149.138;2024-02-14T07:17:57;24.50;58.70
41533;DHT22;27262;-35.248;149.138;2024-02-14T07:20:28;24.50;58.30
41533;DHT22;27262;-35.248;149.138;2024-02-14T07:22:59;24.50;57.70
41533;DHT22;27262;-35.248;149.138;2024-02-14T07:25:30;24.50;57.00
41533;DHT22;27262;-35.248;149.138;2024-02-14T07:28:00;24.50;56.30
41533;DHT22;27262;-35.248;149.138;2024-02-14T07:30:30;24.50;55.70
41533;DHT22;27262;-35.248;149.138;2024-02-14T07:33:01;24.50;55.40
41533;DHT22;27262;-35.248;149.138;2024-02-14T07:35:31;24.40;54.90
41533;DHT22;27262;-35.248;149.138;2024-02-14T07:38:01;24.40;54.20
41533;DHT22;27262;-35.248;149.138;2024-02-14T07:40:32;24.40;53.70
41533;DHT22;27262;-35.248;149.138;2024-02-14T07:43:03;24.30;53.10
41533;DHT22;27262;-35.248;149.138;2024-02-14T07:45:33;24.30;52.80
41533;DHT22;27262;-35.248;149.138;2024-02-14T07:48:04;24.30;52.30
41533;DHT22;27262;-35.248;149.138;2024-02-14T07:50:34;24.30;52.50
41533;DHT22;27262;-35.248;149.138;2024-02-14T07:53:06;24.30;53.40
41533;DHT22;27262;-35.248;149.138;2024-02-14T07:55:37;24.30;55.20
41533;DHT22;27262;-35.248;149.138;2024-02-14T07:58:08;24.30;55.60
41533;DHT22;27262;-35.248;149.138;2024-02-14T08:00:38;24.30;56.00
41533;DHT22;27262;-35.248;149.138;2024-02-14T08:03:09;24.40;56.30
41533;DHT22;27262;-35.248;149.138;2024-02-14T08:05:39;24.40;56.40
41533;DHT22;27262;-35.248;149.138;2024-02-14T08:08:11;24.50;56.60
41533;DHT22;27262;-35.248;149.138;2024-02-14T08:10:47;24.50;56.60
41533;DHT22;27262;-35.248;149.138;2024-02-14T08:13:17;24.50;56.60
41533;DHT22;27262;-35.248;149.138;2024-02-14T08:15:47;24.60;56.70
41533;DHT22;27262;-35.248;149.138;2024-02-14T08:18:18;24.60;56.70
41533;DHT22;27262;-35.248;149.138;2024-02-14T08:20:48;24.60;56.70
41533;DHT22;27262;-35.248;149.138;2024-02-14T08:23:19;24.60;56.70
41533;DHT22;27262;-35.248;149.138;2024-02-14T08:25:49;24.70;56.60
41533;DHT22;27262;-35.248;149.138;2024-02-14T08:28:19;24.70;56.50
41533;DHT22;27262;-35.248;149.138;2024-02-14T08:30:50;24.70;56.50
41533;DHT22;27262;-35.248;149.138;2024-02-14T08:33:20;24.70;56.50
41533;DHT22;27262;-35.248;149.138;2024-02-14T08:35:51;24.70;56.50
41533;DHT22;27262;-35.248;149.138;2024-02-14T08:38:23;24.70;56.50
41533;DHT22;27262;-35.248;149.138;2024-02-14T08:41:04;24.70;56.40
41533;DHT22;27262;-35.248;149.138;2024-02-14T08:43:34;24.80;56.50
41533;DHT22;27262;-35.248;149.138;2024-02-14T08:46:10;24.70;56.60
41533;DHT22;27262;-35.248;149.138;2024-02-14T08:48:42;24.80;56.70
41533;DHT22;27262;-35.248;149.138;2024-02-14T08:51:17;24.80;56.70
41533;DHT22;27262;-35.248;149.138;2024-02-14T08:53:50;24.80;56.80
41533;DHT22;27262;-35.248;149.138;2024-02-14T08:56:25;24.80;56.80
41533;DHT22;27262;-35.248;149.138;2024-02-14T08:58:55;24.80;56.90
41533;DHT22;27262;-35.248;149.138;2024-02-14T09:01:25;24.80;56.90
41533;DHT22;27262;-35.248;149.138;2024-02-14T09:03:56;24.80;57.00
41533;DHT22;27262;-35.248;149.138;2024-02-14T09:06:28;24.80;57.60
41533;DHT22;27262;-35.248;149.138;2024-02-14T09:08:58;24.80;57.10
41533;DHT22;27262;-35.248;149.138;2024-02-14T09:11:29;24.80;57.10
41533;DHT22;27262;-35.248;149.138;2024-02-14T09:14:01;24.80;57.20
41533;DHT22;27262;-35.248;149.138;2024-02-14T09:16:36;24.80;57.20
41533;DHT22;27262;-35.248;149.138;2024-02-14T09:19:06;24.80;57.30
41533;DHT22;27262;-35.248;149.138;2024-02-14T09:21:37;24.80;57.40
41533;DHT22;27262;-35.248;149.138;2024-02-14T09:24:07;24.80;57.40
41533;DHT22;27262;-35.248;149.138;2024-02-14T09:26:38;24.80;57.50
41533;DHT22;27262;-35.248;149.138;2024-02-14T09:29:08;24.80;57.50
41533;DHT22;27262;-35.248;149.138;2024-02-14T09:31:40;24.80;57.60
41533;DHT22;27262;-35.248;149.138;2024-02-14T09:34:10;24.80;57.60
41533;DHT22;27262;-35.248;149.138;2024-02-14T09:36:41;24.80;57.70
41533;DHT22;27262;-35.248;149.138;2024-02-14T09:39:12;24.80;57.80
41533;DHT22;27262;-35.248;149.138;2024-02-14T09:41:54;24.80;57.80
41533;DHT22;27262;-35.248;149.138;2024-02-14T09:44:27;24.80;57.80
41533;DHT22;27262;-35.248;149.138;2024-02-14T09:47:01;24.80;57.90
41533;DHT22;27262;-35.248;149.138;2024-02-14T09:49:35;24.80;57.90
41533;DHT22;27262;-35.248;149.138;2024-02-14T09:52:12;24.80;58.00
41533;DHT22;27262;-35.248;149.138;2024-02-14T09:54:42;24.80;58.00
41533;DHT22;27262;-35.248;149.138;2024-02-14T09:57:15;24.80;58.10
41533;DHT22;27262;-35.248;149.138;2024-02-14T09:59:46;24.80;58.10
41533;DHT22;27262;-35.248;149.138;2024-02-14T10:02:18;24.80;58.20
41533;DHT22;27262;-35.248;149.138;2024-02-14T10:04:48;24.80;58.20
41533;DHT22;27262;-35.248;149.138;2024-02-14T10:07:19;24.80;58.20
41533;DHT22;27262;-35.248;149.138;2024-02-14T10:09:50;24.80;58.30
41533;DHT22;27262;-35.248;149.138;2024-02-14T10:12:20;24.80;58.30
41533;DHT22;27262;-35.248;149.138;2024-02-14T10:14:50;24.80;58.30
41533;DHT22;27262;-35.248;149.138;2024-02-14T10:17:22;24.80;58.40
41533;DHT22;27262;-35.248;149.138;2024-02-14T10:20:02;24.80;58.40
41533;DHT22;27262;-35.248;149.138;2024-02-14T10:22:37;24.80;58.40
41533;DHT22;27262;-35.248;149.138;2024-02-14T10:25:07;24.70;58.50
41533;DHT22;27262;-35.248;149.138;2024-02-14T10:27:41;24.80;58.50
41533;DHT22;27262;-35.248;149.138;2024-02-14T10:30:12;24.80;58.60
41533;DHT22;27262;-35.248;149.138;2024-02-14T10:32:44;24.70;59.20
41533;DHT22;27262;-35.248;149.138;2024-02-14T10:35:17;24.70;58.60
41533;DHT22;27262;-35.248;149.138;2024-02-14T10:37:50;24.80;58.70
41533;DHT22;27262;-35.248;149.138;2024-02-14T10:40:22;24.70;58.70
41533;DHT22;27262;-35.248;149.138;2024-02-14T10:42:54;24.70;58.80
41533;DHT22;27262;-35.248;149.138;2024-02-14T10:45:27;24.70;58.80
41533;DHT22;27262;-35.248;149.138;2024-02-14T10:47:58;24.80;58.90
41533;DHT22;27262;-35.248;149.138;2024-02-14T10:50:33;24.70;58.90
41533;DHT22;27262;-35.248;149.138;2024-02-14T10:53:09;24.70;58.90
41533;DHT22;27262;-35.248;149.138;2024-02-14T10:55:47;24.70;59.00
41533;DHT22;27262;-35.248;149.138;2024-02-14T10:58:18;24.70;58.90
41533;DHT22;27262;-35.248;149.138;2024-02-14T11:00:48;24.70;58.90
41533;DHT22;27262;-35.248;149.138;2024-02-14T11:03:19;24.70;58.80
41533;DHT22;27262;-35.248;149.138;2024-02-14T11:05:50;24.70;59.00
41533;DHT22;27262;-35.248;149.138;2024-02-14T11:08:21;24.70;59.10
41533;DHT22;27262;-35.248;149.138;2024-02-14T11:11:11;24.70;59.10
41533;DHT22;27262;-35.248;149.138;2024-02-14T11:13:42;24.70;59.10
41533;DHT22;27262;-35.248;149.138;2024-02-14T11:16:13;24.70;59.20
41533;DHT22;27262;-35.248;149.138;2024-02-14T11:18:44;24.70;59.20
41533;DHT22;27262;-35.248;149.138;2024-02-14T11:21:17;24.70;59.20
41533;DHT22;27262;-35.248;149.138;2024-02-14T11:23:55;24.70;59.20
41533;DHT22;27262;-35.248;149.138;2024-02-14T11:26:26;24.70;59.20
41533;DHT22;27262;-35.248;149.138;2024-02-14T11:29:01;24.70;59.20
41533;DHT22;27262;-35.248;149.138;2024-02-14T11:31:35;24.70;59.20
41533;DHT22;27262;-35.248;149.138;2024-02-14T11:34:07;24.70;59.20
41533;DHT22;27262;-35.248;149.138;2024-02-14T11:36:40;24.70;59.20
41533;DHT22;27262;-35.248;149.138;2024-02-14T11:39:12;24.70;59.20
41533;DHT22;27262;-35.248;149.138;2024-02-14T11:41:43;24.70;59.20
41533;DHT22;27262;-35.248;149.138;2024-02-14T11:44:14;24.70;59.20
41533;DHT22;27262;-35.248;149.138;2024-02-14T11:46:44;24.70;59.30
41533;DHT22;27262;-35.248;149.138;2024-02-14T11:49:15;24.70;59.20
41533;DHT22;27262;-35.248;149.138;2024-02-14T11:51:47;24.60;59.20
41533;DHT22;27262;-35.248;149.138;2024-02-14T11:54:17;24.60;59.20
41533;DHT22;27262;-35.248;149.138;2024-02-14T11:56:50;24.60;59.20
41533;DHT22;27262;-35.248;149.138;2024-02-14T11:59:20;24.60;59.20
41533;DHT22;27262;-35.248;149.138;2024-02-14T12:01:52;24.60;59.20
41533;DHT22;27262;-35.248;149.138;2024-02-14T12:04:27;24.60;59.20
41533;DHT22;27262;-35.248;149.138;2024-02-14T12:06:58;24.60;59.20
41533;DHT22;27262;-35.248;149.138;2024-02-14T12:09:29;24.60;59.20
41533;DHT22;27262;-35.248;149.138;2024-02-14T12:11:59;24.60;59.20
41533;DHT22;27262;-35.248;149.138;2024-02-14T12:14:33;24.60;59.20
41533;DHT22;27262;-35.248;149.138;2024-02-14T12:17:05;24.60;59.30
41533;DHT22;27262;-35.248;149.138;2024-02-14T12:19:39;24.60;59.30
41533;DHT22;27262;-35.248;149.138;2024-02-14T12:22:10;24.50;59.20
41533;DHT22;27262;-35.248;149.138;2024-02-14T12:24:47;24.60;59.10
41533;DHT22;27262;-35.248;149.138;2024-02-14T12:27:18;24.50;59.10
41533;DHT22;27262;-35.248;149.138;2024-02-14T12:29:48;24.50;59.00
41533;DHT22;27262;-35.248;149.138;2024-02-14T12:32:21;24.50;59.10
41533;DHT22;27262;-35.248;149.138;2024-02-14T12:34:55;24.50;59.10
41533;DHT22;27262;-35.248;149.138;2024-02-14T12:37:25;24.50;59.10
41533;DHT22;27262;-35.248;149.138;2024-02-14T12:39:56;24.50;59.00
41533;DHT22;27262;-35.248;149.138;2024-02-14T12:42:26;24.50;59.10
41533;DHT22;27262;-35.248;149.138;2024-02-14T12:44:57;24.50;59.10
41533;DHT22;27262;-35.248;149.138;2024-02-14T12:47:27;24.50;59.00
41533;DHT22;27262;-35.248;149.138;2024-02-14T12:50:01;24.50;58.90
41533;DHT22;27262;-35.248;149.138;2024-02-14T12:52:32;24.50;59.00
41533;DHT22;27262;-35.248;149.138;2024-02-14T12:55:04;24.50;58.90
41533;DHT22;27262;-35.248;149.138;2024-02-14T12:57:34;24.40;58.80
41533;DHT22;27262;-35.248;149.138;2024-02-14T13:00:06;24.50;58.80
41533;DHT22;27262;-35.248;149.138;2024-02-14T13:02:38;24.50;58.80
41533;DHT22;27262;-35.248;149.138;2024-02-14T13:05:08;24.40;58.70
41533;DHT22;27262;-35.248;149.138;2024-02-14T13:07:39;24.40;58.60
41533;DHT22;27262;-35.248;149.138;2024-02-14T13:10:10;24.40;58.50
41533;DHT22;27262;-35.248;149.138;2024-02-14T13:12:40;24.40;58.60
41533;DHT22;27262;-35.248;149.138;2024-02-14T13:15:13;24.40;58.50
41533;DHT22;27262;-35.248;149.138;2024-02-14T13:17:46;24.40;58.50
41533;DHT22;27262;-35.248;149.138;2024-02-14T13:20:17;24.40;58.50
41533;DHT22;27262;-35.248;149.138;2024-02-14T13:22:48;24.40;58.50
41533;DHT22;27262;-35.248;149.138;2024-02-14T13:25:18;24.40;58.50
41533;DHT22;27262;-35.248;149.138;2024-02-14T13:27:48;24.40;58.50
41533;DHT22;27262;-35.248;149.138;2024-02-14T13:30:19;24.40;58.40
41533;DHT22;27262;-35.248;149.138;2024-02-14T13:32:49;24.30;58.40
41533;DHT22;27262;-35.248;149.138;2024-02-14T13:35:20;24.30;58.40
41533;DHT22;27262;-35.248;149.138;2024-02-14T13:37:50;24.30;58.40
41533;DHT22;27262;-35.248;149.138;2024-02-14T13:40:21;24.30;58.40
41533;DHT22;27262;-35.248;149.138;2024-02-14T13:42:51;24.30;58.40
41533;DHT22;27262;-35.248;149.138;2024-02-14T13:45:22;24.30;58.40
41533;DHT22;27262;-35.248;149.138;2024-02-14T13:48:03;24.30;58.40
41533;DHT22;27262;-35.248;149.138;2024-02-14T13:50:38;24.30;58.40
41533;DHT22;27262;-35.248;149.138;2024-02-14T13:53:08;24.30;58.40
41533;DHT22;27262;-35.248;149.138;2024-02-14T13:55:39;24.30;58.50
41533;DHT22;27262;-35.248;149.138;2024-02-14T13:58:09;24.30;58.50
41533;DHT22;27262;-35.248;149.138;2024-02-14T14:00:45;24.30;58.40
41533;DHT22;27262;-35.248;149.138;2024-02-14T14:03:15;24.30;58.50
41533;DHT22;27262;-35.248;149.138;2024-02-14T14:05:46;24.20;58.50
41533;DHT22;27262;-35.248;149.138;2024-02-14T14:08:25;24.20;58.40
41533;DHT22;27262;-35.248;149.138;2024-02-14T14:10:56;24.30;58.50
41533;DHT22;27262;-35.248;149.138;2024-02-14T14:13:26;24.20;58.50
41533;DHT22;27262;-35.248;149.138;2024-02-14T14:16:00;24.20;58.60
41533;DHT22;27262;-35.248;149.138;2024-02-14T14:18:31;24.20;58.60
41533;DHT22;27262;-35.248;149.138;2024-02-14T14:21:01;24.20;58.60
41533;DHT22;27262;-35.248;149.138;2024-02-14T14:23:33;24.20;58.60
41533;DHT22;27262;-35.248;149.138;2024-02-14T14:26:03;24.20;58.60
41533;DHT22;27262;-35.248;149.138;2024-02-14T14:28:35;24.20;58.60
41533;DHT22;27262;-35.248;149.138;2024-02-14T14:31:06;24.20;58.60
41533;DHT22;27262;-35.248;149.138;2024-02-14T14:33:39;24.10;58.50
41533;DHT22;27262;-35.248;149.138;2024-02-14T14:36:10;24.10;58.40
41533;DHT22;27262;-35.248;149.138;2024-02-14T14:38:40;24.10;58.40
41533;DHT22;27262;-35.248;149.138;2024-02-14T14:41:11;24.10;58.50
41533;DHT22;27262;-35.248;149.138;2024-02-14T14:43:41;24.10;58.40
41533;DHT22;27262;-35.248;149.138;2024-02-14T14:46:12;24.10;58.20
41533;DHT22;27262;-35.248;149.138;2024-02-14T14:48:43;24.10;58.30
41533;DHT22;27262;-35.248;149.138;2024-02-14T14:51:14;24.10;58.40
41533;DHT22;27262;-35.248;149.138;2024-02-14T14:53:44;24.10;58.40
41533;DHT22;27262;-35.248;149.138;2024-02-14T14:56:15;24.10;58.50
41533;DHT22;27262;-35.248;149.138;2024-02-14T14:58:49;24.10;58.50
41533;DHT22;27262;-35.248;149.138;2024-02-14T15:01:19;24.10;58.60
41533;DHT22;27262;-35.248;149.138;2024-02-14T15:03:50;24.10;58.60
41533;DHT22;27262;-35.248;149.138;2024-02-14T15:06:24;24.00;58.60
41533;DHT22;27262;-35.248;149.138;2024-02-14T15:08:55;24.00;58.60
41533;DHT22;27262;-35.248;149.138;2024-02-14T15:11:25;24.00;58.60
41533;DHT22;27262;-35.248;149.138;2024-02-14T15:13:56;24.00;58.60